Time;durP1;ratioP1;P1;durP2;ratioP2;P2;SDS_P1;SDS_P2;PMS_P1;PMS_P2;Temp;Humidity;BMP_temperature;BMP_pressure;BME280_temperature;BME280_humidity;BME280_pressure;Samples;Min_cycle;Max_cycle;Signal;HPM_P1;HPM_P2
2022/03/05 00:01:42;;;;;;;;;;;3.80;48.70;;;1.70;53.68;102112.19;8470171;27;20006;-83
2022/03/05 00:06:04;;;;;;;;;;;3.80;48.70;;;1.79;53.63;102129.38;8485010;27;19998;-83
2022/03/05 00:10:26;;;;;;;;;;;3.70;48.60;;;1.70;53.63;102117.34;8464037;28;20006;-83
2022/03/05 00:14:47;;;;;;;;;;;3.70;48.70;;;1.71;53.86;102133.66;8457335;28;20005;-83
2022/03/05 00:19:09;;;;;;;;;;;3.70;48.70;;;1.64;53.56;102127.59;8479244;27;19994;-83
2022/03/05 00:23:31;;;;;;;;;;;3.70;48.70;;;1.55;53.88;102112.97;8453953;27;19915;-83
2022/03/05 00:27:53;;;;;;;;;;;3.60;48.60;;;1.52;53.66;102114.69;8479604;28;19994;-83
2022/03/05 00:32:16;;;;;;;;;;;3.40;48.50;;;1.60;53.91;102123.31;8459679;28;20006;-82
2022/03/05 00:36:38;;;;;;;;;;;3.60;48.60;;;1.52;53.91;102112.13;8462622;27;20005;-82
2022/03/05 00:40:59;;;;;;;;;;;3.40;48.60;;;1.37;53.97;102096.59;8472372;27;20344;-82
2022/03/05 00:45:21;;;;;;;;;;;3.50;48.60;;;1.46;54.00;102122.34;8496929;27;20340;-82
2022/03/05 00:49:43;;;;;;;;;;;3.50;48.60;;;1.51;54.12;102130.97;8490309;27;20006;-82
2022/03/05 00:54:05;;;;;;;;;;;3.50;48.70;;;1.34;53.82;102105.16;8471415;27;20530;-81
2022/03/05 00:58:26;;;;;;;;;;;3.40;48.60;;;1.38;53.92;102122.34;8466831;27;20447;-82
2022/03/05 01:02:48;;;;;;;;;;;3.40;48.60;;;1.38;53.88;102124.91;8477592;27;20376;-81
2022/03/05 01:07:10;;;;;;;;;;;3.40;48.60;;;1.32;53.77;102117.13;8454446;27;19997;-81
2022/03/05 01:11:31;;;;;;;;;;;3.40;48.60;;;1.26;53.88;102117.13;8471702;27;20015;-81
2022/03/05 01:15:53;;;;;;;;;;;3.30;48.60;;;1.29;53.71;102128.28;8480661;27;20430;-80
2022/03/05 01:20:15;;;;;;;;;;;3.20;48.50;;;1.09;53.88;102101.59;8471262;27;19994;-80
2022/03/05 01:24:36;;;;;;;;;;;3.10;48.50;;;1.02;53.84;102089.53;8494467;27;20010;-80
2022/03/05 01:28:58;;;;;;;;;;;3.10;48.50;;;1.08;53.66;102102.41;8476262;27;19997;-80
2022/03/05 01:33:20;;;;;;;;;;;3.20;48.60;;;1.01;54.04;102101.53;8478328;27;20006;-80
2022/03/05 01:37:41;;;;;;;;;;;3.00;48.50;;;0.98;53.84;102092.94;8479443;27;19994;-80
2022/03/05 01:42:04;;;;;;;;;;;3.10;48.60;;;1.06;53.72;102109.28;8486858;27;19924;-80
2022/03/05 01:46:37;;;;;;;;;;;3.10;48.60;;;1.06;53.83;102110.13;8479509;27;20014;-80
2022/03/05 01:50:58;;;;;;;;;;;3.10;48.60;;;0.96;54.07;102097.22;8474580;27;20081;-81
2022/03/05 01:55:20;;;;;;;;;;;3.00;48.60;;;1.10;53.79;102105.88;8499530;27;19911;-80
2022/03/05 01:59:41;;;;;;;;;;;3.10;48.60;;;0.97;53.85;102091.19;8485803;27;20009;-80
2022/03/05 02:04:03;;;;;;;;;;;3.10;48.60;;;0.78;54.15;102056.78;8481471;27;20006;-80
2022/03/05 02:08:25;;;;;;;;;;;3.00;48.60;;;1.00;53.98;102104.06;8495648;27;19998;-80
2022/03/05 02:12:47;;;;;;;;;;;3.00;48.60;;;0.97;54.04;102098.91;8497235;27;19998;-80
2022/03/05 02:17:08;;;;;;;;;;;3.00;48.60;;;0.31;53.83;101996.50;8484373;27;19998;-80
2022/03/05 02:21:30;;;;;;;;;;;3.00;48.60;;;0.89;53.77;102086.00;8498297;27;19997;-80
2022/03/05 02:25:56;;;;;;;;;;;3.00;48.60;;;0.84;54.03;102083.44;8471851;27;19995;-80
2022/03/05 02:30:18;;;;;;;;;;;3.00;48.60;;;0.92;53.81;102106.63;8479749;27;19997;-80
2022/03/05 02:34:39;;;;;;;;;;;2.80;48.50;;;0.93;54.00;102099.75;8463197;27;19994;-80
2022/03/05 02:39:01;;;;;;;;;;;2.90;48.50;;;0.79;53.95;102079.97;8487271;27;20002;-80
2022/03/05 02:43:23;;;;;;;;;;;2.90;48.60;;;0.75;53.90;102078.19;8496776;27;20019;-80
2022/03/05 02:47:44;;;;;;;;;;;2.90;48.60;;;0.72;53.98;102077.31;8488913;27;20017;-80
2022/03/05 02:52:07;;;;;;;;;;;3.10;48.60;;;0.79;54.06;102097.94;8495152;27;19998;-80
2022/03/05 02:56:28;;;;;;;;;;;2.80;48.60;;;0.78;54.12;102096.22;8496311;27;19986;-80
2022/03/05 03:00:50;;;;;;;;;;;2.80;48.60;;;0.80;54.11;102091.09;8458344;27;19990;-80
2022/03/05 03:05:15;;;;;;;;;;;2.80;48.60;;;-0.08;53.79;101943.97;8466471;27;19921;-80
2022/03/05 03:09:36;;;;;;;;;;;2.80;48.60;;;0.75;54.07;102098.75;8476227;27;19994;-80
2022/03/05 03:13:58;;;;;;;;;;;2.80;48.60;;;0.57;54.16;102071.22;8491877;27;20002;-80
2022/03/05 03:18:19;;;;;;;;;;;3.10;48.70;;;0.61;54.12;102090.09;8496696;27;19994;-80
2022/03/05 03:22:41;;;;;;;;;;;2.70;48.50;;;0.53;54.02;102076.31;8475984;27;19998;-80
2022/03/05 03:27:03;;;;;;;;;;;2.70;48.50;;;0.52;53.96;102074.63;8491260;27;20036;-81
2022/03/05 03:31:24;;;;;;;;;;;2.70;48.60;;;0.38;53.82;102059.94;8487471;27;20002;-80
2022/03/05 03:35:46;;;;;;;;;;;2.60;48.50;;;0.37;54.04;102058.19;8488805;27;19998;-80
2022/03/05 03:40:09;;;;;;;;;;;2.60;48.50;;;0.52;53.96;102085.75;8481800;27;19998;-80
2022/03/05 03:44:31;;;;;;;;;;;2.50;48.50;;;0.39;54.02;102079.63;8495429;27;19915;-80
2022/03/05 03:48:52;;;;;;;;;;;2.50;48.50;;;0.28;54.10;102070.13;8460029;27;20068;-80
2022/03/05 03:53:14;;;;;;;;;;;2.50;48.50;;;0.38;53.86;102093.34;8495842;27;20006;-80
2022/03/05 03:57:37;;;;;;;;;;;2.30;48.40;;;0.32;53.90;102093.25;8476612;27;19994;-80
2022/03/05 04:02:01;;;;;;;;;;;2.40;48.50;;;0.20;54.05;102082.88;8479749;27;19990;-81
2022/03/05 04:06:22;;;;;;;;;;;2.30;48.50;;;0.21;53.89;102089.75;8485560;27;20006;-80
2022/03/05 04:10:44;;;;;;;;;;;2.30;48.50;;;0.09;54.12;102084.50;8487210;27;20002;-80
2022/03/05 04:15:07;;;;;;;;;;;2.30;48.50;;;0.26;53.33;102113.75;8486196;27;20006;-80
2022/03/05 04:19:29;;;;;;;;;;;2.30;48.50;;;0.19;54.24;102102.59;8475680;27;19911;-80
2022/03/05 04:23:50;;;;;;;;;;;2.30;48.60;;;0.15;54.24;102095.69;8451117;28;20001;-80
2022/03/05 04:28:12;;;;;;;;;;;2.30;48.90;;;0.20;54.07;102108.56;8464449;27;20021;-80
2022/03/05 04:32:33;;;;;;;;;;;2.30;48.50;;;0.06;53.87;102092.19;8475724;27;20005;-80
2022/03/05 04:36:55;;;;;;;;;;;2.20;48.50;;;0.10;54.05;102102.47;8453199;28;20002;-80
2022/03/05 04:41:16;;;;;;;;;;;2.20;48.50;;;-0.10;54.02;102079.16;8478797;27;20006;-80
2022/03/05 04:45:40;;;;;;;;;;;2.20;48.50;;;0.11;53.99;102129.91;8465593;28;20014;-80
2022/03/05 04:50:01;;;;;;;;;;;2.20;48.50;;;0.09;54.03;102120.44;8471420;28;20030;-80
2022/03/05 04:54:25;;;;;;;;;;;2.10;48.50;;;0.07;54.11;102123.00;8476016;28;20338;-80
2022/03/05 04:58:47;;;;;;;;;;;2.10;48.50;;;-0.01;54.12;102125.47;8464941;28;19998;-80
2022/03/05 05:03:08;;;;;;;;;;;2.10;48.50;;;-0.23;53.91;102093.56;8486288;27;19921;-80
2022/03/05 05:07:30;;;;;;;;;;;2.10;48.50;;;0.01;54.07;102135.78;8489143;27;19994;-80
2022/03/05 05:11:52;;;;;;;;;;;2.10;48.50;;;-0.19;54.21;102111.56;8484836;28;20005;-80
2022/03/05 05:16:14;;;;;;;;;;;2.00;48.50;;;-0.04;54.07;102143.41;8459761;27;19998;-80
2022/03/05 05:20:35;;;;;;;;;;;2.00;48.50;;;-0.18;54.08;102127.00;8490174;28;19998;-80
2022/03/05 05:24:57;;;;;;;;;;;1.90;48.50;;;-0.08;54.06;102148.47;8491492;27;19934;-80
2022/03/05 05:29:18;;;;;;;;;;;1.80;48.40;;;-0.15;53.95;102142.44;8486304;27;20423;-80
2022/03/05 05:33:44;;;;;;;;;;;1.90;48.50;;;-0.35;54.11;102113.97;8485374;27;20439;-79
2022/03/05 05:38:06;;;;;;;;;;;1.90;48.50;;;-0.14;54.15;102148.41;8499989;27;19998;-80
2022/03/05 05:42:28;;;;;;;;;;;1.90;48.50;;;-0.16;54.08;102152.66;8475796;27;20013;-80
2022/03/05 05:46:50;;;;;;;;;;;1.90;48.50;;;-0.18;54.07;102151.81;8474942;27;19921;-81
2022/03/05 05:51:14;;;;;;;;;;;1.90;48.50;;;-0.27;54.19;102148.28;8474237;27;20021;-80
2022/03/05 05:55:35;;;;;;;;;;;1.80;48.50;;;-0.27;54.16;102153.41;8483092;27;19997;-79
2022/03/05 05:59:57;;;;;;;;;;;1.80;48.40;;;-0.34;54.13;102141.34;8474714;27;20014;-79
2022/03/05 06:04:18;;;;;;;;;;;1.70;48.40;;;-0.40;54.15;102132.72;8488414;27;20007;-80
2022/03/05 06:08:40;;;;;;;;;;;1.80;48.40;;;-0.27;54.10;102162.81;8496891;27;19998;-79
2022/03/05 06:13:01;;;;;;;;;;;1.80;48.40;;;-0.30;54.08;102165.34;8487989;27;20384;-79
2022/03/05 06:17:23;;;;;;;;;;;1.80;48.50;;;-0.43;54.11;102156.63;8494573;27;20002;-79
2022/03/05 06:21:45;;;;;;;;;;;1.60;48.40;;;-0.29;54.18;102182.47;8490506;27;20014;-79
2022/03/05 06:26:06;;;;;;;;;;;1.80;48.50;;;-0.38;54.23;102164.38;8468117;27;20005;-80
2022/03/05 06:30:28;;;;;;;;;;;1.80;48.50;;;-0.37;54.23;102169.53;8464278;27;20006;-80
2022/03/05 06:34:51;;;;;;;;;;;1.60;48.40;;;-0.35;54.08;102174.66;8496766;27;20005;-80
2022/03/05 06:39:12;;;;;;;;;;;1.80;48.40;;;-0.41;54.07;102174.59;8477343;27;19998;-80
2022/03/05 06:43:34;;;;;;;;;;;1.50;48.40;;;-0.50;54.07;102173.63;8475820;27;19915;-80
2022/03/05 06:47:56;;;;;;;;;;;1.70;48.50;;;-0.50;54.26;102171.06;8480777;27;19998;-80
2022/03/05 06:52:17;;;;;;;;;;;1.70;48.50;;;-0.55;54.21;102162.44;8467549;27;19994;-80
2022/03/05 06:56:39;;;;;;;;;;;1.80;48.60;;;-0.31;54.33;102191.84;8471358;27;19998;-81
2022/03/05 07:01:00;;;;;;;;;;;1.80;48.60;;;-0.33;54.30;102188.38;8457546;27;19918;-81
2022/03/05 07:05:22;;;;;;;;;;;1.80;48.70;;;-0.29;54.04;102187.59;8449864;27;19922;-80
2022/03/05 07:09:44;;;;;;;;;;;1.80;48.70;;;-0.24;54.21;102191.97;8435768;27;19912;-80
2022/03/05 07:14:06;;;;;;;;;;;1.90;48.80;;;-0.21;54.31;102187.72;8461252;27;20337;-80
2022/03/05 07:18:27;;;;;;;;;;;2.00;48.80;;;-0.08;54.42;102195.59;8456627;27;19922;-80
2022/03/05 07:22:49;;;;;;;;;;;2.00;48.80;;;-0.12;54.55;102183.53;8472537;27;19915;-79
2022/03/05 07:27:10;;;;;;;;;;;2.10;48.90;;;0.02;54.39;102200.81;8478583;27;19982;-79
2022/03/05 07:31:32;;;;;;;;;;;2.10;49.00;;;0.02;54.41;102196.53;8486921;27;20435;-79
2022/03/05 07:35:54;;;;;;;;;;;2.20;49.00;;;-0.01;54.72;102187.09;8489339;27;20002;-80
2022/03/05 07:40:16;;;;;;;;;;;2.30;49.10;;;0.07;54.34;102183.78;8489640;27;20010;-81
2022/03/05 07:44:37;;;;;;;;;;;2.30;49.70;;;0.13;54.66;102194.09;8493110;27;19998;-79
2022/03/05 07:48:59;;;;;;;;;;;2.30;49.30;;;0.18;54.63;102190.75;8472151;27;20332;-80
2022/03/05 07:53:20;;;;;;;;;;;2.40;49.50;;;0.30;54.64;102200.31;8490482;27;19993;-79
2022/03/05 07:57:42;;;;;;;;;;;2.80;49.90;;;0.45;54.56;102207.31;8483552;27;20002;-79
2022/03/05 08:02:03;;;;;;;;;;;2.50;49.70;;;0.63;54.71;102216.91;8472604;27;19998;-78
2022/03/05 08:06:25;;;;;;;;;;;2.80;50.20;;;0.91;55.23;102228.31;8487803;27;19915;-78
2022/03/05 08:10:46;;;;;;;;;;;2.80;50.20;;;1.03;55.21;102199.28;8495033;28;20005;-77
2022/03/05 08:15:09;;;;;;;;;;;3.10;50.80;;;1.33;55.32;102202.06;8482000;27;20009;-77
2022/03/05 08:19:31;;;;;;;;;;;3.40;51.50;;;1.63;55.36;102205.69;8494820;28;20006;-78
2022/03/05 08:23:52;;;;;;;;;;;3.70;51.20;;;1.81;55.33;102204.06;8455227;28;20637;-80
2022/03/05 08:28:14;;;;;;;;;;;3.90;51.20;;;1.99;55.55;102192.13;8478396;28;20005;-81
2022/03/05 08:32:35;;;;;;;;;;;4.10;51.20;;;2.21;55.44;102180.19;8466049;28;20002;-80
2022/03/05 08:36:57;;;;;;;;;;;4.50;51.60;;;2.44;55.26;102192.28;8478424;27;20010;-81
2022/03/05 08:41:18;;;;;;;;;;;4.60;50.90;;;2.79;55.73;102209.53;8479089;28;20033;-81
2022/03/05 08:45:40;;;;;;;;;;;4.80;51.40;;;3.08;55.31;102214.72;8466558;27;19937;-81
2022/03/05 08:50:03;;;;;;;;;;;5.10;51.10;;;3.23;55.21;102201.78;8482314;27;19994;-81
2022/03/05 08:54:25;;;;;;;;;;;5.40;51.30;;;3.42;55.62;102201.75;8445305;28;20006;-83
2022/03/05 08:58:47;;;;;;;;;;;5.80;51.10;;;3.54;55.44;102186.25;8464509;27;20023;-84
2022/03/05 09:03:08;;;;;;;;;;;5.90;50.80;;;3.86;56.00;102208.53;8463050;27;20018;-84
2022/03/05 09:07:30;;;;;;;;;;;6.30;50.80;;;4.18;55.43;102218.72;8469725;27;19911;-80
2022/03/05 09:11:52;;;;;;;;;;;6.30;51.00;;;4.39;55.82;102216.03;8485629;27;20001;-81
2022/03/05 09:16:15;;;;;;;;;;;6.40;50.60;;;4.52;55.74;102203.91;8486265;27;19986;-81
2022/03/05 09:20:36;;;;;;;;;;;6.70;50.50;;;4.78;55.70;102198.56;8499979;27;19998;-81
2022/03/05 09:24:58;;;;;;;;;;;7.00;50.50;;;5.09;55.71;102219.03;8491617;27;20010;-81
2022/03/05 09:29:19;;;;;;;;;;;7.20;50.40;;;5.14;55.79;102186.19;8464973;27;20001;-82
2022/03/05 09:33:41;;;;;;;;;;;7.40;50.30;;;5.33;55.86;102176.50;8478993;27;20002;-88
2022/03/05 09:38:02;;;;;;;;;;;7.60;50.20;;;5.48;55.33;102185.84;8480688;27;19917;-81
2022/03/05 09:42:24;;;;;;;;;;;7.80;50.00;;;5.57;55.41;102172.81;8486647;27;19918;-81
2022/03/05 09:46:46;;;;;;;;;;;8.00;49.60;;;5.67;55.11;102177.03;8464557;27;19998;-81
2022/03/05 09:51:08;;;;;;;;;;;8.00;49.20;;;5.67;55.24;102160.59;8466893;27;20046;-80
2022/03/05 09:55:30;;;;;;;;;;;8.20;49.40;;;6.04;54.83;102212.03;8464454;27;20010;-80
2022/03/05 09:59:51;;;;;;;;;;;8.30;49.40;;;6.16;55.26;102211.91;8476458;27;19986;-80
2022/03/05 10:04:21;;;;;;;;;;;8.60;49.20;;;6.11;54.77;102187.75;8468698;27;20002;-87
2022/03/05 10:08:44;;;;;;;;;;;8.40;49.10;;;6.32;55.03;102204.75;8473702;27;20009;-81
2022/03/05 10:13:20;;;;;;;;;;;8.30;48.90;;;6.41;54.62;102213.28;8479516;27;20423;-80
2022/03/05 10:17:50;;;;;;;;;;;8.50;49.10;;;6.36;54.60;102194.31;8477881;27;19990;-80
2022/03/05 10:22:12;;;;;;;;;;;8.60;48.10;;;6.40;54.33;102192.56;8491362;27;20455;-81
2022/03/05 10:26:53;;;;;;;;;;;8.60;48.60;;;6.55;54.37;102196.66;8471886;27;20002;-81
2022/03/05 10:31:14;;;;;;;;;;;8.70;48.20;;;6.56;54.90;102196.63;8460898;27;20014;-80
2022/03/05 10:35:36;;;;;;;;;;;8.70;48.30;;;6.64;54.40;102188.72;8468829;27;19920;-81
2022/03/05 10:39:58;;;;;;;;;;;8.80;48.60;;;6.83;54.29;102192.75;8457800;27;20363;-80
2022/03/05 10:44:22;;;;;;;;;;;8.90;48.90;;;6.84;54.31;102173.69;8469324;27;20019;-80
2022/03/05 10:48:45;;;;;;;;;;;8.90;48.80;;;7.05;54.24;102184.63;8471119;27;19947;-80
2022/03/05 10:53:07;;;;;;;;;;;9.10;49.00;;;7.04;54.32;102157.75;8470876;27;19946;-80
2022/03/05 10:57:30;;;;;;;;;;;9.20;48.60;;;7.15;54.33;102172.31;8463868;27;19951;-80
2022/03/05 11:01:53;;;;;;;;;;;9.20;47.60;;;7.11;53.67;102175.88;8475699;27;19986;-80
2022/03/05 11:06:22;;;;;;;;;;;9.20;47.80;;;7.13;54.32;102167.16;8438486;27;20289;-82
2022/03/05 11:10:53;;;;;;;;;;;9.20;47.80;;;7.19;54.08;102161.00;8435470;27;20038;-80
2022/03/05 11:15:20;;;;;;;;;;;9.20;48.50;;;7.35;53.96;102157.22;8452909;27;19976;-80
2022/03/05 11:19:45;;;;;;;;;;;9.30;48.30;;;7.48;54.43;102157.81;8464764;27;19990;-79
2022/03/05 11:41:20;;;;;;;;;;;9.70;47.20;;;7.49;53.56;102150.00;8639722;22;20308;-80
2022/03/05 11:49:59;;;;;;;;;;;9.50;46.10;;;7.29;53.59;102159.91;9326803;22;20208;-80
2022/03/05 11:54:22;;;;;;;;;;;9.30;46.70;;;7.10;53.43;102141.22;8411484;28;19912;-82
2022/03/05 11:58:43;;;;;;;;;;;9.30;47.40;;;7.18;53.90;102149.72;8413544;27;19915;-85
2022/03/05 12:03:06;;;;;;;;;;;9.20;47.50;;;7.16;53.78;102129.88;8444445;27;20284;-88
2022/03/05 12:07:40;;;;;;;;;;;9.20;47.60;;;6.60;53.82;102015.75;8464459;27;19917;-81
2022/03/05 12:12:10;;;;;;;;;;;9.10;47.40;;;7.39;53.31;102126.84;8460150;27;20298;-80
2022/03/05 12:16:31;;;;;;;;;;;9.30;47.90;;;7.38;53.68;102102.59;8471737;27;19918;-79
2022/03/05 12:20:53;;;;;;;;;;;9.40;48.10;;;7.62;53.65;102113.41;8476796;27;19915;-80
2022/03/05 12:25:14;;;;;;;;;;;9.50;48.00;;;7.74;53.72;102113.97;8469662;27;19916;-82
2022/03/05 12:29:36;;;;;;;;;;;9.60;47.80;;;7.79;53.47;102111.28;8460568;27;19915;-81
2022/03/05 12:33:57;;;;;;;;;;;9.70;47.60;;;7.82;53.53;102110.38;8472560;27;19915;-81
2022/03/05 12:38:21;;;;;;;;;;;9.80;47.40;;;7.82;53.06;102094.75;8472350;27;20355;-82
2022/03/05 12:42:48;;;;;;;;;;;9.80;47.70;;;7.82;53.12;102089.56;8493752;27;19920;-78
2022/03/05 12:47:10;;;;;;;;;;;9.90;46.60;;;7.98;53.09;102123.00;8470677;27;19941;-79
2022/03/05 12:51:34;;;;;;;;;;;10.30;47.70;;;7.89;52.79;102102.41;8482249;27;19925;-79
2022/03/05 12:55:59;;;;;;;;;;;9.90;46.10;;;7.91;52.67;102126.66;8458728;27;19915;-79
2022/03/05 13:00:08;;;;;;;;;;;9.90;46.90;;;7.79;52.77;102121.69;8486319;27;19915;-81
2022/03/05 13:04:28;;;;;;;;;;;9.90;47.30;;;7.75;52.98;102120.91;8370458;28;20299;-80
2022/03/05 13:08:41;;;;;;;;;;;9.80;46.60;;;7.72;53.20;102125.28;8378163;28;19917;-78
2022/03/05 13:13:13;;;;;;;;;;;9.70;46.40;;;7.73;53.17;102114.88;8403913;28;19924;-79
2022/03/05 13:17:29;;;;;;;;;;;9.60;47.00;;;7.66;53.03;102100.28;8407009;28;20393;-79
2022/03/05 13:21:49;;;;;;;;;;;9.60;46.30;;;7.58;52.97;102083.13;8402923;28;19944;-81
2022/03/05 13:26:10;;;;;;;;;;;9.60;44.90;;;7.80;52.91;102117.34;8413069;28;19920;-78
2022/03/05 13:30:18;;;;;;;;;;;9.60;45.10;;;7.83;52.47;102118.16;8411387;28;20414;-79
2022/03/05 13:34:22;;;;;;;;;;;9.60;45.00;;;7.57;52.54;102078.84;8401899;28;19930;-78
2022/03/05 13:38:25;;;;;;;;;;;9.70;43.40;;;7.73;52.17;102101.03;8411660;28;19920;-78
2022/03/05 13:42:32;;;;;;;;;;;9.60;45.10;;;7.65;52.35;102092.53;8401110;28;19931;-78
2022/03/05 13:46:34;;;;;;;;;;;9.60;46.60;;;7.53;52.30;102085.81;8403220;28;19962;-78
2022/03/05 13:50:38;;;;;;;;;;;9.70;46.00;;;7.69;52.05;102109.75;8398214;28;20393;-79
2022/03/05 13:54:44;;;;;;;;;;;9.30;46.40;;;7.23;51.99;102035.34;8412893;28;19925;-79
2022/03/05 13:58:50;;;;;;;;;;;9.50;45.90;;;7.34;52.45;102050.72;8389727;28;20068;-79
2022/03/05 14:02:55;;;;;;;;;;;9.50;45.50;;;7.63;52.55;102105.56;8420420;28;19931;-79
2022/03/05 14:07:00;;;;;;;;;;;9.60;44.40;;;7.45;52.05;102062.63;8401676;28;20351;-79
2022/03/05 14:11:01;;;;;;;;;;;9.60;45.10;;;7.68;52.17;102095.91;8409839;28;20514;-79
2022/03/05 14:15:06;;;;;;;;;;;9.50;45.60;;;7.68;52.12;102095.06;8410573;28;19920;-79
2022/03/05 14:19:07;;;;;;;;;;;9.30;45.30;;;7.71;52.32;102101.03;8412791;28;20304;-79
2022/03/05 14:23:16;;;;;;;;;;;9.40;43.80;;;7.50;52.29;102078.94;8419899;28;19924;-79
2022/03/05 14:27:20;;;;;;;;;;;9.40;45.50;;;7.44;52.33;102080.81;8414093;28;19926;-79
2022/03/05 14:31:21;;;;;;;;;;;9.50;44.40;;;7.47;52.13;102091.16;8445098;28;20346;-78
2022/03/05 14:35:24;;;;;;;;;;;9.50;46.10;;;7.07;52.02;102038.25;8426270;28;19920;-78
2022/03/05 14:39:26;;;;;;;;;;;9.30;45.20;;;7.15;51.77;102061.47;8397351;28;19926;-78
2022/03/05 14:43:27;;;;;;;;;;;9.30;44.90;;;7.36;51.80;102085.31;8407523;28;20471;-78
2022/03/05 14:47:29;;;;;;;;;;;9.20;44.30;;;7.18;51.87;102079.56;8407642;28;20491;-78
2022/03/05 14:51:30;;;;;;;;;;;9.20;45.10;;;7.15;52.14;102081.38;8405990;28;20015;-77
2022/03/05 14:55:32;;;;;;;;;;;9.20;44.80;;;6.95;51.57;102054.06;8411810;28;20004;-78
2022/03/05 14:59:33;;;;;;;;;;;8.70;44.90;;;7.01;52.05;102077.31;8410999;28;20015;-78
2022/03/05 15:03:35;;;;;;;;;;;8.80;45.60;;;7.09;51.82;102084.97;8413277;28;20312;-78
2022/03/05 15:07:38;;;;;;;;;;;8.90;45.80;;;6.62;51.69;102016.59;8419862;28;20445;-77
2022/03/05 15:11:39;;;;;;;;;;;8.90;44.90;;;7.04;51.70;102082.44;8409649;28;20006;-78
2022/03/05 15:15:41;;;;;;;;;;;8.90;45.40;;;6.89;51.53;102061.13;8383400;28;20488;-78
2022/03/05 15:19:42;;;;;;;;;;;8.90;45.40;;;6.62;52.09;102014.84;8400593;28;20019;-78
2022/03/05 15:23:43;;;;;;;;;;;8.90;45.70;;;6.98;51.96;102081.72;8400556;28;19924;-78
2022/03/05 15:27:45;;;;;;;;;;;8.80;45.40;;;6.96;52.00;102084.31;8401759;28;20003;-78
2022/03/05 15:31:47;;;;;;;;;;;8.80;45.20;;;6.55;52.19;102013.25;8397710;28;20015;-78
2022/03/05 15:35:48;;;;;;;;;;;8.80;45.90;;;6.97;51.47;102083.47;8398296;28;19916;-78
2022/03/05 15:39:49;;;;;;;;;;;8.60;46.30;;;6.89;51.99;102074.09;8400024;28;19995;-78
2022/03/05 15:43:51;;;;;;;;;;;8.80;45.00;;;6.65;52.02;102037.31;8401034;28;20018;-78
2022/03/05 15:47:52;;;;;;;;;;;8.70;45.40;;;6.75;51.44;102057.03;8398833;28;20171;-79
2022/03/05 15:51:54;;;;;;;;;;;8.80;45.40;;;6.59;51.89;102030.50;8399453;28;20360;-79
2022/03/05 15:55:55;;;;;;;;;;;8.50;43.70;;;6.92;51.66;102081.84;8386537;28;20444;-79
2022/03/05 15:59:56;;;;;;;;;;;8.70;44.50;;;6.72;51.81;102057.06;8397372;28;19920;-79
2022/03/05 16:04:01;;;;;;;;;;;8.40;44.90;;;6.85;51.68;102083.66;8394344;28;19927;-79
2022/03/05 16:08:03;;;;;;;;;;;8.40;44.90;;;6.81;51.52;102082.03;8399251;28;20015;-79
2022/03/05 16:12:05;;;;;;;;;;;8.70;44.40;;;6.60;51.36;102047.75;8362777;28;20011;-79
2022/03/05 16:16:06;;;;;;;;;;;8.60;45.10;;;6.76;51.50;102083.84;8394315;28;20015;-78
2022/03/05 16:20:10;;;;;;;;;;;8.50;45.50;;;6.44;51.24;102046.31;8397060;28;19923;-79
2022/03/05 16:24:11;;;;;;;;;;;8.60;45.80;;;6.60;51.36;102086.69;8395780;28;20007;-79
2022/03/05 16:28:12;;;;;;;;;;;8.60;45.10;;;6.53;51.67;102087.66;8398680;28;20424;-79
2022/03/05 16:32:15;;;;;;;;;;;8.40;45.20;;;6.49;51.93;102087.75;8395811;28;20448;-78
2022/03/05 16:36:16;;;;;;;;;;;8.30;45.30;;;6.38;51.38;102077.56;8383532;28;19926;-80
2022/03/05 16:40:20;;;;;;;;;;;8.10;45.50;;;6.17;51.87;102045.00;8389740;28;19923;-79
2022/03/05 16:44:21;;;;;;;;;;;8.20;45.20;;;5.88;52.08;102006.53;8418101;28;19924;-81
2022/03/05 16:48:23;;;;;;;;;;;8.20;45.20;;;5.97;51.94;102035.81;8419143;28;19924;-80
2022/03/05 16:52:24;;;;;;;;;;;8.10;45.30;;;6.17;51.85;102073.53;8414100;28;19920;-80
2022/03/05 16:56:28;;;;;;;;;;;7.90;45.50;;;6.18;51.89;102093.41;8414323;28;19922;-80
2022/03/05 17:00:29;;;;;;;;;;;8.00;45.70;;;5.61;51.78;101995.69;8417391;28;19924;-80
2022/03/05 17:04:32;;;;;;;;;;;7.90;45.50;;;5.92;51.53;102058.31;8409020;28;19927;-80
2022/03/05 17:12:06;;;;;;;;;;;7.70;45.50;;;5.96;51.83;102077.31;8342574;27;19930;-79
2022/03/05 17:16:09;;;;;;;;;;;7.80;45.80;;;5.95;51.51;102083.38;8319617;28;19925;-79
2022/03/05 17:20:11;;;;;;;;;;;7.70;45.90;;;6.02;51.41;102103.13;8310818;28;19978;-79
2022/03/05 17:24:12;;;;;;;;;;;8.00;46.00;;;5.83;51.33;102070.53;8282026;28;19921;-79
2022/03/05 17:28:14;;;;;;;;;;;7.70;46.10;;;5.52;51.55;102027.75;8297706;28;20310;-79
2022/03/05 17:32:15;;;;;;;;;;;7.70;46.50;;;5.93;51.60;102100.66;8277892;28;19921;-80
2022/03/05 17:36:17;;;;;;;;;;;7.60;46.00;;;5.86;51.28;102109.38;8297004;28;19925;-79
2022/03/05 17:40:19;;;;;;;;;;;7.60;46.00;;;5.64;51.65;102088.91;8304317;23;19934;-79
2022/03/05 17:44:20;;;;;;;;;;;7.60;45.80;;;5.44;51.21;102072.78;8306792;28;19955;-79
2022/03/05 17:48:25;;;;;;;;;;;7.50;45.80;;;5.53;51.21;102095.97;8313443;28;19928;-80
2022/03/05 17:52:26;;;;;;;;;;;7.40;45.90;;;5.35;51.22;102080.66;8288164;28;19932;-80
2022/03/05 17:56:33;;;;;;;;;;;7.30;45.90;;;5.21;51.38;102078.22;8286068;28;19921;-82
2022/03/05 18:00:38;;;;;;;;;;;7.50;46.00;;;5.23;51.78;102086.84;8271344;28;20377;-80
2022/03/05 18:04:40;;;;;;;;;;;7.10;45.80;;;5.24;51.61;102106.69;8302715;28;20529;-80
2022/03/05 18:08:41;;;;;;;;;;;7.00;45.90;;;5.15;51.36;102105.03;8307648;28;19925;-81
2022/03/05 18:12:43;;;;;;;;;;;6.80;46.00;;;5.08;51.37;102101.66;8311754;28;19932;-81
2022/03/05 18:16:44;;;;;;;;;;;6.80;46.00;;;5.07;51.51;102112.03;8310703;28;19921;-81
2022/03/05 18:20:46;;;;;;;;;;;6.90;46.20;;;4.71;51.68;102059.75;8300094;28;19921;-80
2022/03/05 18:24:48;;;;;;;;;;;6.80;46.20;;;4.59;51.53;102067.59;8290717;28;19959;-80
2022/03/05 18:28:51;;;;;;;;;;;6.70;46.20;;;4.78;51.41;102105.41;8275879;28;20313;-80
2022/03/05 18:32:52;;;;;;;;;;;6.60;46.20;;;4.80;51.47;102134.69;8285475;28;19921;-80
2022/03/05 18:36:54;;;;;;;;;;;6.20;46.10;;;4.14;51.61;102036.94;8282556;28;19928;-80
2022/03/05 18:40:55;;;;;;;;;;;6.50;46.20;;;4.50;51.49;102107.34;8250841;28;19921;-80
2022/03/05 18:44:57;;;;;;;;;;;6.10;46.10;;;4.23;51.40;102074.78;8272319;28;19928;-80
2022/03/05 18:49:04;;;;;;;;;;;6.30;46.20;;;4.05;51.49;102054.22;8281855;28;19952;-80
2022/03/05 18:53:06;;;;;;;;;;;6.30;46.60;;;4.43;51.47;102122.06;8276464;28;20291;-80
2022/03/05 18:57:08;;;;;;;;;;;6.20;46.30;;;4.30;51.51;102110.09;8286728;28;20401;-80
2022/03/05 19:01:09;;;;;;;;;;;6.10;46.30;;;4.29;51.70;102121.28;8288134;28;19922;-80
2022/03/05 19:05:11;;;;;;;;;;;6.10;46.30;;;4.25;51.37;102134.25;8264699;28;19925;-81
2022/03/05 19:09:12;;;;;;;;;;;6.00;46.20;;;3.77;51.39;102067.31;8273648;28;19925;-80
2022/03/05 19:13:13;;;;;;;;;;;5.90;46.20;;;4.14;51.36;102144.66;8276467;28;19921;-80
2022/03/05 19:17:15;;;;;;;;;;;5.90;46.30;;;4.02;51.37;102121.44;8284753;28;19921;-81
2022/03/05 19:21:17;;;;;;;;;;;5.80;46.20;;;3.74;51.21;102088.00;8284046;28;19936;-81
2022/03/05 19:25:19;;;;;;;;;;;5.50;46.10;;;3.74;51.60;102111.25;8281295;28;19929;-81
2022/03/05 19:29:20;;;;;;;;;;;5.70;46.20;;;3.79;51.26;102126.75;8272566;28;19944;-81
2022/03/05 19:33:22;;;;;;;;;;;5.50;46.20;;;3.52;51.63;102093.28;8291449;28;19922;-81
2022/03/05 19:37:24;;;;;;;;;;;5.60;46.30;;;3.29;51.38;102066.66;8278372;28;19936;-79
2022/03/05 19:41:25;;;;;;;;;;;5.40;46.30;;;3.43;51.70;102101.06;8265308;28;20349;-80
2022/03/05 19:45:29;;;;;;;;;;;5.40;46.40;;;3.18;51.59;102068.44;8285234;28;20511;-82
2022/03/05 19:49:30;;;;;;;;;;;5.40;46.40;;;3.30;51.68;102099.38;8299764;28;19936;-81
2022/03/05 19:53:37;;;;;;;;;;;5.30;46.50;;;3.35;51.48;102118.31;8285810;28;19921;-82
2022/03/05 19:57:41;;;;;;;;;;;5.20;46.40;;;3.03;51.53;102083.09;8255513;28;20321;-82
2022/03/05 20:01:44;;;;;;;;;;;5.40;46.50;;;3.26;51.75;102128.63;8270940;28;19921;-81
2022/03/05 20:05:46;;;;;;;;;;;5.10;46.40;;;3.11;51.85;102114.06;8271838;28;19925;-81
2022/03/05 20:09:47;;;;;;;;;;;4.90;46.40;;;3.24;51.49;102135.50;8284632;28;19940;-82